Time;durP1;ratioP1;P1;durP2;ratioP2;P2;SDS_P1;SDS_P2;PMS_P1;PMS_P2;Temp;Humidity;BMP_temperature;BMP_pressure;BME280_temperature;BME280_humidity;BME280_pressure;Samples;Min_cycle;Max_cycle;Signal;HPM_P1;HPM_P2
2022/05/10 00:00:06;;;;;;;8.95;4.50;;;13.70;61.50;;;;;;4993839;28;20492;-81
2022/05/10 00:02:33;;;;;;;10.48;4.18;;;13.60;61.80;;;;;;5005882;28;20561;-81
2022/05/10 00:04:59;;;;;;;9.82;4.18;;;13.70;61.60;;;;;;5016181;28;20473;-81
2022/05/10 00:07:29;;;;;;;12.05;3.97;;;13.70;61.70;;;;;;4987787;28;20021;-81
2022/05/10 00:09:54;;;;;;;9.07;4.03;;;13.70;61.90;;;;;;5012064;28;20580;-81
2022/05/10 00:12:20;;;;;;;7.40;3.47;;;13.70;61.80;;;;;;4994170;28;20057;-81
2022/05/10 00:14:45;;;;;;;10.02;3.88;;;13.60;62.20;;;;;;4995914;28;20033;-81
2022/05/10 00:17:24;;;;;;;10.27;3.78;;;13.60;61.90;;;;;;5005723;28;20034;-81
2022/05/10 00:19:50;;;;;;;8.20;3.35;;;13.60;62.30;;;;;;5009466;28;20037;-81
2022/05/10 00:22:15;;;;;;;8.77;3.35;;;13.60;62.00;;;;;;4993209;28;20441;-84
2022/05/10 00:24:41;;;;;;;7.95;3.28;;;13.60;62.50;;;;;;4988913;28;20038;-82
2022/05/10 00:27:06;;;;;;;9.43;4.28;;;13.50;62.80;;;;;;4991675;28;20053;-84
2022/05/10 00:29:32;;;;;;;8.35;3.20;;;13.50;62.90;;;;;;4997381;28;20065;-81
2022/05/10 00:31:57;;;;;;;10.45;3.50;;;13.30;63.20;;;;;;5004971;28;20347;-81
2022/05/10 00:34:25;;;;;;;13.85;3.38;;;13.30;63.50;;;;;;4995769;28;20026;-81
2022/05/10 00:36:50;;;;;;;9.45;3.80;;;13.30;63.60;;;;;;4988815;28;20135;-81
2022/05/10 00:39:16;;;;;;;6.22;3.25;;;13.30;63.60;;;;;;5009237;28;20033;-81
2022/05/10 00:41:49;;;;;;;7.38;3.58;;;13.30;63.80;;;;;;4992802;28;20037;-81
2022/05/10 00:44:20;;;;;;;9.68;3.50;;;13.30;63.70;;;;;;4995953;28;20034;-81
2022/05/10 00:47:05;;;;;;;10.02;3.88;;;13.20;63.90;;;;;;4988494;28;20052;-81
2022/05/10 00:49:43;;;;;;;9.40;3.47;;;13.20;64.60;;;;;;4989196;28;20030;-81
2022/05/10 00:52:27;;;;;;;10.13;3.50;;;13.10;65.00;;;;;;4993828;28;20037;-81
2022/05/10 00:55:19;;;;;;;13.25;4.07;;;13.10;64.90;;;;;;5009823;28;20489;-81
2022/05/10 00:57:52;;;;;;;13.25;3.80;;;13.10;64.60;;;;;;5004679;28;20061;-81
2022/05/10 01:00:27;;;;;;;6.60;3.10;;;13.20;64.50;;;;;;5020412;28;20040;-81
2022/05/10 01:03:14;;;;;;;13.07;4.00;;;13.20;64.90;;;;;;5018150;28;20389;-81
2022/05/10 01:05:54;;;;;;;10.15;3.72;;;13.20;64.90;;;;;;5014269;28;20083;-81
2022/05/10 01:08:22;;;;;;;8.23;3.50;;;13.20;65.10;;;;;;4994720;28;20022;-81
2022/05/10 01:10:56;;;;;;;8.15;3.45;;;13.10;65.30;;;;;;5006042;28;20033;-81
2022/05/10 01:13:41;;;;;;;9.52;3.75;;;13.00;66.00;;;;;;5026089;28;20040;-81
2022/05/10 01:16:17;;;;;;;8.35;3.53;;;13.00;66.30;;;;;;5009224;28;20073;-81
2022/05/10 01:18:43;;;;;;;8.45;3.65;;;13.10;66.00;;;;;;5004751;28;20037;-81
2022/05/10 01:21:23;;;;;;;7.22;3.33;;;13.00;65.90;;;;;;5015724;28;20403;-81
2022/05/10 01:24:11;;;;;;;8.98;3.22;;;13.00;66.40;;;;;;5009902;28;20026;-81
2022/05/10 01:27:17;;;;;;;8.52;3.47;;;12.90;66.60;;;;;;4999200;28;20041;-81
2022/05/10 01:29:46;;;;;;;7.18;2.92;;;12.80;67.20;;;;;;5029250;28;20026;-81
2022/05/10 01:35:08;;;;;;;7.75;3.35;;;12.90;67.10;;;;;;5011193;28;20040;-81
2022/05/10 01:37:39;;;;;;;7.47;3.38;;;12.80;67.40;;;;;;4999424;28;20032;-81
2022/05/10 01:40:14;;;;;;;7.30;3.75;;;12.80;67.70;;;;;;4992848;28;20065;-81
2022/05/10 01:42:50;;;;;;;6.25;3.40;;;12.70;67.80;;;;;;5013319;28;20037;-81
2022/05/10 01:45:51;;;;;;;7.75;3.40;;;12.70;67.60;;;;;;5009768;28;20030;-80
2022/05/10 01:48:20;;;;;;;9.27;3.38;;;12.60;68.30;;;;;;4993264;28;20042;-81
2022/05/10 01:50:59;;;;;;;7.15;3.35;;;12.60;68.40;;;;;;5013729;28;20018;-81
2022/05/10 01:53:34;;;;;;;8.18;2.92;;;12.60;68.70;;;;;;5014311;28;20045;-80
2022/05/10 01:56:12;;;;;;;7.53;3.35;;;12.60;68.60;;;;;;5010394;28;20759;-80
2022/05/10 01:58:39;;;;;;;14.32;3.67;;;12.60;69.00;;;;;;4994153;28;20030;-81
2022/05/10 02:01:09;;;;;;;8.25;3.75;;;12.60;69.00;;;;;;4993779;28;20025;-81
2022/05/10 02:03:37;;;;;;;13.63;4.07;;;12.60;69.10;;;;;;5011540;28;20037;-81
2022/05/10 02:06:26;;;;;;;5.65;3.13;;;12.60;69.50;;;;;;5011325;28;20064;-81
2022/05/10 02:09:11;;;;;;;7.55;3.67;;;12.60;69.50;;;;;;4996180;28;20044;-81
2022/05/10 02:12:01;;;;;;;9.93;3.72;;;12.50;69.90;;;;;;5009439;28;20032;-80
2022/05/10 02:14:37;;;;;;;7.65;3.30;;;12.60;69.70;;;;;;4997002;28;20037;-81
2022/05/10 02:17:09;;;;;;;7.80;3.78;;;12.60;69.60;;;;;;4996454;28;20026;-81
2022/05/10 02:19:52;;;;;;;8.50;3.60;;;12.50;69.50;;;;;;5027921;28;20026;-81
2022/05/10 02:22:30;;;;;;;10.70;3.78;;;12.60;69.70;;;;;;5009490;28;20041;-81
2022/05/10 02:24:59;;;;;;;8.32;3.60;;;12.60;69.90;;;;;;5000525;28;20069;-81
2022/05/10 02:27:34;;;;;;;6.00;3.38;;;12.50;70.00;;;;;;5012696;28;20021;-81
2022/05/10 02:30:07;;;;;;;6.78;3.53;;;12.60;69.90;;;;;;5017403;28;20026;-82
2022/05/10 02:35:45;;;;;;;9.48;3.25;;;12.60;70.00;;;;;;5005511;28;20040;-81
2022/05/10 02:38:14;;;;;;;6.80;3.55;;;12.60;70.40;;;;;;5012891;28;20036;-81
2022/05/10 02:40:43;;;;;;;9.25;3.33;;;12.60;70.50;;;;;;4997277;28;20137;-81
2022/05/10 02:43:15;;;;;;;6.15;3.30;;;12.70;70.30;;;;;;5008219;28;20497;-81
2022/05/10 02:45:42;;;;;;;7.85;3.53;;;12.60;70.50;;;;;;4997101;28;20026;-81
2022/05/10 02:48:29;;;;;;;10.35;3.67;;;12.60;70.60;;;;;;5006002;28;20030;-81
2022/05/10 02:50:55;;;;;;;9.93;3.63;;;12.60;70.60;;;;;;5011582;28;20404;-81
2022/05/10 02:53:21;;;;;;;9.15;3.55;;;12.60;71.10;;;;;;5007718;28;20039;-81
2022/05/10 02:55:54;;;;;;;9.80;3.15;;;12.60;71.30;;;;;;4987632;28;20084;-80
2022/05/10 02:58:38;;;;;;;5.57;3.08;;;12.70;70.80;;;;;;5006041;28;20044;-81
2022/05/10 03:01:09;;;;;;;7.18;3.67;;;12.70;71.10;;;;;;4989537;28;20058;-81
2022/05/10 03:03:35;;;;;;;11.05;3.63;;;12.60;71.10;;;;;;4991120;28;20030;-81
2022/05/10 03:06:01;;;;;;;7.90;3.08;;;12.60;71.10;;;;;;4994712;28;20035;-81
2022/05/10 03:08:27;;;;;;;7.38;3.03;;;12.60;71.40;;;;;;4991910;28;20031;-81
2022/05/10 03:10:53;;;;;;;6.88;3.47;;;12.60;71.80;;;;;;4985907;28;20038;-80
2022/05/10 03:13:19;;;;;;;9.30;3.42;;;12.60;71.60;;;;;;4994000;28;20038;-81
2022/05/10 03:15:44;;;;;;;10.27;3.10;;;12.70;71.60;;;;;;4991431;28;20069;-81
2022/05/10 03:18:10;;;;;;;8.25;3.53;;;12.70;71.60;;;;;;4987502;28;20335;-80
2022/05/10 03:20:35;;;;;;;9.35;3.33;;;12.80;71.50;;;;;;4993578;28;20078;-81
2022/05/10 03:23:01;;;;;;;9.65;3.80;;;12.70;71.50;;;;;;4990452;28;20073;-81
2022/05/10 03:25:30;;;;;;;9.70;3.47;;;12.80;71.50;;;;;;4988479;28;20081;-81
2022/05/10 03:27:58;;;;;;;7.60;3.58;;;12.70;71.40;;;;;;4991492;28;20058;-81
2022/05/10 03:30:25;;;;;;;7.00;3.58;;;12.70;71.70;;;;;;4989366;28;20066;-80
2022/05/10 03:32:52;;;;;;;7.18;3.22;;;12.80;72.00;;;;;;4991399;28;20080;-81
2022/05/10 03:35:18;;;;;;;7.85;3.78;;;12.70;71.80;;;;;;4987170;28;20030;-81
2022/05/10 03:37:44;;;;;;;5.63;3.25;;;12.70;72.00;;;;;;4991572;28;20393;-81
2022/05/10 03:40:10;;;;;;;8.82;3.45;;;12.70;72.10;;;;;;4989041;28;20034;-81
2022/05/10 03:42:48;;;;;;;6.50;3.20;;;12.70;72.10;;;;;;4989534;28;20058;-81
2022/05/10 03:45:15;;;;;;;5.40;3.28;;;12.70;72.50;;;;;;4990622;28;20030;-81
2022/05/10 03:47:42;;;;;;;7.10;3.55;;;12.70;72.30;;;;;;4985866;28;20023;-81
2022/05/10 03:50:09;;;;;;;12.63;3.53;;;12.70;72.50;;;;;;4988456;28;20026;-81
2022/05/10 03:52:40;;;;;;;9.43;3.65;;;12.70;72.60;;;;;;4989848;28;20053;-81
2022/05/10 03:55:08;;;;;;;9.25;3.08;;;12.70;72.60;;;;;;5008649;28;20040;-80
2022/05/10 03:57:34;;;;;;;7.53;3.72;;;12.70;72.50;;;;;;5008207;28;20032;-81
2022/05/10 04:00:00;;;;;;;10.20;3.80;;;12.70;72.70;;;;;;4989470;28;20493;-83
2022/05/10 04:02:26;;;;;;;7.85;3.63;;;12.70;72.70;;;;;;4984522;28;20030;-82
2022/05/10 04:04:52;;;;;;;7.70;3.80;;;12.80;72.70;;;;;;4999531;28;20040;-81
2022/05/10 04:07:17;;;;;;;6.15;3.15;;;12.80;72.70;;;;;;4993985;28;20477;-81
2022/05/10 04:09:43;;;;;;;9.80;3.45;;;12.80;72.60;;;;;;5003503;28;20117;-81
2022/05/10 04:12:09;;;;;;;11.88;4.03;;;12.80;72.60;;;;;;5007599;28;20036;-81
2022/05/10 04:14:35;;;;;;;10.02;3.40;;;12.90;72.80;;;;;;4990515;28;20045;-84
2022/05/10 04:17:01;;;;;;;6.60;3.50;;;12.90;72.80;;;;;;5006461;28;20053;-82
2022/05/10 04:19:26;;;;;;;5.35;3.17;;;12.90;72.60;;;;;;4989378;28;20065;-81
2022/05/10 04:21:52;;;;;;;8.50;3.78;;;12.90;72.80;;;;;;5009111;28;20041;-81
2022/05/10 04:24:17;;;;;;;7.65;3.97;;;12.90;72.90;;;;;;5005715;28;20030;-81
2022/05/10 04:26:44;;;;;;;7.68;3.85;;;12.90;73.00;;;;;;5004404;28;20057;-81
2022/05/10 04:29:10;;;;;;;7.28;3.17;;;13.00;73.00;;;;;;5009281;28;20034;-80
2022/05/10 04:31:35;;;;;;;9.55;3.85;;;13.00;72.90;;;;;;5010138;28;20052;-80
2022/05/10 04:34:01;;;;;;;7.32;4.03;;;13.00;72.80;;;;;;4996960;28;20026;-80
2022/05/10 04:36:27;;;;;;;6.88;3.53;;;13.00;73.00;;;;;;5002157;28;20026;-80
2022/05/10 04:38:53;;;;;;;9.48;4.10;;;13.10;72.90;;;;;;5004322;28;20034;-80
2022/05/10 04:41:32;;;;;;;8.68;4.03;;;13.10;72.90;;;;;;4999011;28;20041;-80
2022/05/10 04:44:03;;;;;;;10.23;3.88;;;13.20;72.60;;;;;;5007302;28;20034;-80
2022/05/10 04:46:31;;;;;;;10.27;3.75;;;13.20;72.80;;;;;;4992091;28;20029;-79
2022/05/10 04:48:57;;;;;;;10.95;3.65;;;13.30;72.60;;;;;;4989593;28;20049;-79
2022/05/10 04:51:23;;;;;;;7.45;3.28;;;13.40;72.70;;;;;;4994542;28;20462;-80
2022/05/10 04:53:49;;;;;;;10.32;3.45;;;13.50;72.30;;;;;;5002609;28;20145;-79
2022/05/10 04:56:15;;;;;;;6.82;3.65;;;13.60;72.40;;;;;;5004822;28;20026;-80
2022/05/10 04:58:41;;;;;;;8.75;3.45;;;13.60;72.00;;;;;;4991296;28;20018;-79
2022/05/10 05:01:09;;;;;;;7.95;3.60;;;13.70;71.90;;;;;;5009529;28;20041;-80
2022/05/10 05:03:35;;;;;;;7.50;3.30;;;13.70;71.80;;;;;;5001414;28;20128;-80
2022/05/10 05:06:01;;;;;;;5.75;3.10;;;13.80;71.60;;;;;;5007653;28;20070;-80
2022/05/10 05:08:27;;;;;;;8.25;3.35;;;13.80;71.70;;;;;;5005446;28;20029;-80
2022/05/10 05:10:56;;;;;;;7.05;3.30;;;13.80;71.60;;;;;;5009419;28;20108;-81
2022/05/10 05:13:22;;;;;;;9.45;3.58;;;13.90;71.40;;;;;;5012151;28;20477;-80
2022/05/10 05:15:47;;;;;;;8.57;3.45;;;14.00;71.50;;;;;;5014748;28;20026;-80
2022/05/10 05:18:13;;;;;;;6.25;3.92;;;14.00;71.50;;;;;;5023642;28;20489;-80
2022/05/10 05:20:40;;;;;;;8.13;3.50;;;14.10;71.70;;;;;;5007691;28;20045;-80
2022/05/10 05:23:08;;;;;;;8.20;3.55;;;14.10;70.90;;;;;;5008045;28;20038;-80
2022/05/10 05:25:38;;;;;;;7.03;3.25;;;14.30;71.20;;;;;;5007774;28;20386;-80
2022/05/10 05:28:05;;;;;;;10.23;3.30;;;14.40;71.00;;;;;;5004524;28;20053;-80
2022/05/10 05:30:31;;;;;;;7.82;3.08;;;14.40;70.80;;;;;;4994829;28;20057;-80
2022/05/10 05:32:57;;;;;;;7.10;3.45;;;14.50;70.70;;;;;;4995632;28;20030;-80
2022/05/10 05:35:23;;;;;;;5.80;3.58;;;14.50;71.00;;;;;;5008393;28;20049;-80
2022/05/10 05:37:48;;;;;;;5.75;3.08;;;14.50;70.80;;;;;;5011769;28;20396;-80
2022/05/10 05:40:16;;;;;;;6.32;3.65;;;14.50;70.80;;;;;;5007955;28;20058;-80
2022/05/10 05:42:42;;;;;;;6.78;3.60;;;14.60;71.00;;;;;;5021212;28;20030;-80
2022/05/10 05:45:10;;;;;;;10.30;3.63;;;14.60;71.00;;;;;;5004726;28;20027;-80
2022/05/10 05:47:36;;;;;;;5.32;3.22;;;14.60;70.90;;;;;;4997712;28;20033;-80
2022/05/10 05:50:04;;;;;;;6.65;3.47;;;14.70;70.50;;;;;;4998721;28;20037;-80
2022/05/10 05:52:29;;;;;;;7.55;3.45;;;14.70;71.00;;;;;;4997048;28;20030;-80
2022/05/10 05:54:54;;;;;;;8.02;3.67;;;14.70;70.90;;;;;;5009216;28;20042;-80
2022/05/10 05:57:21;;;;;;;8.02;3.08;;;14.80;71.10;;;;;;4999660;28;20389;-82
2022/05/10 05:59:47;;;;;;;6.38;3.00;;;14.80;71.00;;;;;;4998989;28;20152;-82
2022/05/10 06:02:16;;;;;;;8.35;3.33;;;15.00;70.90;;;;;;5004308;28;20138;-82
2022/05/10 06:04:42;;;;;;;9.70;3.40;;;15.10;70.80;;;;;;4996475;28;20046;-83
2022/05/10 06:07:09;;;;;;;10.00;3.28;;;15.40;70.60;;;;;;4995854;28;20029;-81
2022/05/10 06:09:36;;;;;;;8.18;3.03;;;15.50;69.90;;;;;;5001947;28;20415;-82
2022/05/10 06:12:02;;;;;;;8.60;3.72;;;15.70;69.90;;;;;;5012996;28;20120;-82
2022/05/10 06:14:29;;;;;;;9.73;2.92;;;15.90;70.00;;;;;;4996024;28;20037;-80
2022/05/10 06:16:58;;;;;;;6.43;3.22;;;16.00;68.10;;;;;;5011159;28;20401;-80
2022/05/10 06:19:24;;;;;;;5.13;3.10;;;16.10;68.60;;;;;;5014045;28;20030;-80
2022/05/10 06:21:50;;;;;;;5.90;3.20;;;16.30;68.30;;;;;;5014138;28;20026;-80
2022/05/10 06:24:16;;;;;;;9.27;3.30;;;16.30;67.20;;;;;;5014440;28;20042;-80
2022/05/10 06:26:41;;;;;;;6.93;3.40;;;16.50;67.70;;;;;;5014321;28;20391;-80
2022/05/10 06:29:07;;;;;;;7.03;3.10;;;16.60;67.50;;;;;;5005226;28;20030;-82
2022/05/10 06:31:32;;;;;;;6.82;3.35;;;16.70;66.30;;;;;;5009682;28;20026;-82
2022/05/10 06:33:58;;;;;;;8.77;3.45;;;16.90;66.90;;;;;;4996023;28;20030;-83
2022/05/10 06:36:23;;;;;;;7.25;3.58;;;17.00;65.20;;;;;;4997426;28;20026;-79
2022/05/10 06:38:50;;;;;;;6.95;3.30;;;17.20;66.40;;;;;;5010124;28;20041;-79
2022/05/10 06:41:16;;;;;;;7.40;2.97;;;17.20;65.00;;;;;;5007504;28;20026;-79
2022/05/10 06:43:41;;;;;;;6.95;3.08;;;17.40;65.10;;;;;;4994773;28;20594;-79
2022/05/10 06:46:19;;;;;;;8.60;3.13;;;17.60;65.50;;;;;;4997505;28;20079;-79
2022/05/10 06:48:45;;;;;;;8.88;3.22;;;17.70;64.40;;;;;;4997574;28;20029;-79
2022/05/10 06:51:13;;;;;;;5.75;2.90;;;17.90;63.70;;;;;;4994461;28;20098;-79
2022/05/10 06:53:39;;;;;;;7.10;2.92;;;17.90;64.50;;;;;;5010148;28;20420;-79
2022/05/10 06:56:05;;;;;;;6.00;2.97;;;18.00;64.10;;;;;;5010967;28;20060;-79
2022/05/10 06:58:31;;;;;;;6.90;3.20;;;18.00;63.40;;;;;;5014952;28;20030;-79
2022/05/10 07:00:57;;;;;;;6.53;3.10;;;18.10;63.70;;;;;;4993124;28;20087;-79
2022/05/10 07:03:32;;;;;;;6.10;2.70;;;18.10;63.60;;;;;;5010660;28;20041;-82
2022/05/10 07:05:59;;;;;;;9.00;3.03;;;18.50;64.00;;;;;;4992088;28;20060;-82
2022/05/10 07:08:25;;;;;;;7.20;3.25;;;18.50;62.10;;;;;;5010728;28;20030;-82
2022/05/10 07:10:50;;;;;;;4.53;2.80;;;18.70;62.60;;;;;;4985375;28;20029;-82
2022/05/10 07:13:18;;;;;;;6.50;2.50;;;19.10;62.00;;;;;;4994524;28;20064;-82
2022/05/10 07:15:44;;;;;;;7.32;3.00;;;19.20;60.80;;;;;;4995590;28;20075;-82
2022/05/10 07:18:10;;;;;;;9.50;3.63;;;19.40;59.90;;;;;;4995914;28;20136;-82
2022/05/10 07:20:35;;;;;;;8.20;3.38;;;19.60;59.20;;;;;;4992361;28;20434;-82
2022/05/10 07:23:01;;;;;;;7.25;3.67;;;19.60;58.30;;;;;;5006847;28;20120;-82
2022/05/10 07:25:28;;;;;;;7.53;2.97;;;20.10;57.90;;;;;;5009644;28;20116;-82
2022/05/10 07:27:55;;;;;;;6.38;3.20;;;20.50;56.80;;;;;;4993321;28;20029;-82
2022/05/10 07:30:23;;;;;;;6.03;3.60;;;20.50;56.80;;;;;;5010047;28;20062;-82
2022/05/10 07:32:49;;;;;;;8.27;3.85;;;20.60;56.90;;;;;;5012686;28;20415;-82
2022/05/10 07:35:14;;;;;;;6.47;3.13;;;20.50;56.50;;;;;;5004477;28;20026;-82
2022/05/10 07:37:40;;;;;;;6.68;2.90;;;20.50;57.30;;;;;;5010383;28;20026;-82
2022/05/10 07:40:09;;;;;;;7.85;3.45;;;20.60;56.80;;;;;;4993147;28;20026;-82
2022/05/10 07:42:36;;;;;;;8.02;3.30;;;20.50;57.10;;;;;;4990097;28;20033;-82
2022/05/10 07:45:04;;;;;;;7.22;3.50;;;20.50;57.10;;;;;;5003957;28;20035;-77
2022/05/10 07:47:29;;;;;;;8.20;3.60;;;20.50;58.20;;;;;;5008730;28;20033;-76
2022/05/10 07:49:55;;;;;;;6.38;3.53;;;20.70;57.90;;;;;;5011178;28;20076;-76
2022/05/10 07:52:20;;;;;;;6.15;3.70;;;20.60;58.30;;;;;;4993770;28;20116;-77
2022/05/10 07:54:46;;;;;;;7.28;3.60;;;20.60;57.40;;;;;;4991754;28;20420;-83
2022/05/10 07:57:11;;;;;;;8.82;3.83;;;20.70;57.40;;;;;;4998175;28;20045;-83
2022/05/10 07:59:37;;;;;;;13.18;3.38;;;20.80;56.70;;;;;;5004733;28;20024;-82
2022/05/10 08:02:04;;;;;;;6.20;3.22;;;21.00;57.30;;;;;;5007551;28;20129;-82
2022/05/10 08:04:30;;;;;;;9.07;3.60;;;21.10;57.60;;;;;;5003416;28;20022;-83
2022/05/10 08:06:55;;;;;;;5.85;3.30;;;21.20;55.80;;;;;;5010051;28;20061;-83
2022/05/10 08:09:21;;;;;;;8.68;3.55;;;21.40;55.50;;;;;;4989349;28;20036;-83
2022/05/10 08:11:46;;;;;;;8.80;3.60;;;21.50;57.30;;;;;;5002469;28;20067;-83
2022/05/10 08:14:13;;;;;;;9.63;3.38;;;21.40;55.00;;;;;;5003047;28;20084;-83
2022/05/10 08:16:39;;;;;;;8.77;3.88;;;21.60;57.10;;;;;;4989919;28;20030;-83
2022/05/10 08:19:04;;;;;;;6.60;3.38;;;21.60;54.70;;;;;;4993279;28;20422;-83
2022/05/10 08:21:31;;;;;;;6.22;3.35;;;21.60;55.20;;;;;;5005278;28;20036;-83
2022/05/10 08:23:56;;;;;;;8.55;3.47;;;21.70;56.30;;;;;;5004436;28;20105;-83
2022/05/10 08:26:23;;;;;;;6.88;3.38;;;21.80;55.10;;;;;;5006465;28;20081;-83
2022/05/10 08:28:49;;;;;;;7.65;3.78;;;22.00;54.90;;;;;;5009722;28;20022;-83
2022/05/10 08:31:15;;;;;;;7.88;3.50;;;22.00;54.60;;;;;;4990204;28;20030;-83
2022/05/10 08:33:43;;;;;;;7.60;3.45;;;22.00;53.10;;;;;;4999395;28;20041;-83
2022/05/10 08:36:09;;;;;;;9.50;4.15;;;21.70;53.90;;;;;;5000639;28;20385;-83
2022/05/10 08:38:36;;;;;;;9.73;3.53;;;21.50;55.10;;;;;;4991514;28;20022;-83
2022/05/10 08:41:23;;;;;;;8.02;3.55;;;21.90;54.90;;;;;;5002562;28;20029;-83
2022/05/10 08:43:54;;;;;;;5.88;3.33;;;22.00;54.00;;;;;;5016212;28;20025;-83
2022/05/10 08:46:42;;;;;;;11.50;3.78;;;22.00;55.20;;;;;;4990707;28;20045;-83
2022/05/10 08:49:19;;;;;;;8.77;3.85;;;22.00;54.20;;;;;;4995177;28;20484;-83
2022/05/10 08:51:46;;;;;;;8.57;3.83;;;21.90;54.80;;;;;;5008209;28;20397;-83
2022/05/10 08:54:12;;;;;;;5.43;3.28;;;21.90;53.40;;;;;;5003005;28;20454;-83
2022/05/10 08:56:46;;;;;;;7.38;3.47;;;22.00;53.60;;;;;;5005434;28;20022;-83
2022/05/10 08:59:40;;;;;;;13.15;4.00;;;22.20;55.00;;;;;;4989687;28;20041;-83
2022/05/10 09:02:27;;;;;;;7.53;3.38;;;22.30;54.50;;;;;;4972135;28;20034;-83
2022/05/10 09:05:06;;;;;;;10.05;4.10;;;22.50;52.00;;;;;;5010348;28;20045;-84
2022/05/10 09:07:33;;;;;;;8.57;3.80;;;22.60;52.70;;;;;;5000816;28;20026;-83
2022/05/10 09:10:39;;;;;;;7.88;3.80;;;23.00;51.00;;;;;;5004440;28;20026;-83
2022/05/10 09:13:15;;;;;;;10.10;3.63;;;23.80;51.90;;;;;;4986324;28;20042;-83
2022/05/10 09:15:46;;;;;;;7.88;3.50;;;23.60;48.70;;;;;;4993982;28;20030;-84
2022/05/10 09:18:18;;;;;;;;;;;23.30;49.00;;;;;;5011979;28;20381;-84
2022/05/10 09:21:03;;;;;;;6.20;3.20;;;23.10;47.20;;;;;;4990679;28;19908;-83
2022/05/10 09:24:06;;;;;;;7.78;3.88;;;23.40;49.00;;;;;;5007990;28;20076;-83
2022/05/10 09:26:44;;;;;;;6.25;3.28;;;23.30;49.10;;;;;;5008869;28;20033;-83
2022/05/10 09:29:22;;;;;;;5.47;3.13;;;23.20;48.00;;;;;;5009078;28;20033;-84
2022/05/10 09:34:46;;;;;;;8.07;3.28;;;23.60;47.20;;;;;;5010927;28;20041;-83
2022/05/10 09:37:17;;;;;;;9.15;3.50;;;23.70;46.40;;;;;;5013412;28;20033;-83
2022/05/10 09:39:55;;;;;;;6.72;2.95;;;23.90;45.30;;;;;;5010512;28;20022;-83
2022/05/10 09:42:30;;;;;;;5.82;2.75;;;24.20;44.70;;;;;;5013677;28;20061;-83
2022/05/10 09:45:02;;;;;;;10.07;3.22;;;24.00;42.90;;;;;;4996085;28;20123;-83
2022/05/10 09:47:28;;;;;;;3.95;2.42;;;23.90;44.70;;;;;;4991506;28;20018;-83
2022/05/10 09:50:09;;;;;;;4.43;2.55;;;23.70;44.80;;;;;;5014636;28;20030;-83
2022/05/10 09:52:35;;;;;;;8.20;2.22;;;24.10;44.40;;;;;;4999909;28;21393;-82
2022/05/10 09:55:07;;;;;;;5.70;2.50;;;24.50;43.20;;;;;;5017165;28;20042;-82
2022/05/10 09:57:39;;;;;;;4.28;2.17;;;24.10;43.60;;;;;;4998846;28;20018;-82
2022/05/10 10:00:12;;;;;;;5.15;2.70;;;23.90;45.30;;;;;;5002550;28;20037;-83
2022/05/10 10:02:39;;;;;;;8.90;2.95;;;24.00;45.60;;;;;;4995269;28;20022;-82
2022/05/10 10:05:35;;;;;;;5.78;2.55;;;24.20;44.10;;;;;;5009561;28;20038;-83
2022/05/10 10:08:00;;;;;;;3.85;2.08;;;25.00;45.90;;;;;;4999269;28;20041;-83
2022/05/10 10:10:31;;;;;;;5.05;2.53;;;24.90;42.90;;;;;;5017738;28;20053;-83
2022/05/10 10:12:57;;;;;;;5.18;2.45;;;25.30;44.50;;;;;;5000213;28;20118;-83
2022/05/10 10:15:41;;;;;;;6.18;2.65;;;25.50;41.90;;;;;;5019257;28;20449;-83
2022/05/10 10:18:09;;;;;;;4.88;2.25;;;25.50;42.30;;;;;;5011914;28;20023;-83
2022/05/10 10:20:40;;;;;;;4.60;2.28;;;25.40;42.30;;;;;;5009674;28;20232;-83
2022/05/10 10:23:19;;;;;;;8.07;2.40;;;24.90;42.10;;;;;;5014688;28;20022;-84
2022/05/10 10:25:48;;;;;;;7.45;2.30;;;25.20;41.40;;;;;;5000695;28;20018;-83
2022/05/10 10:28:23;;;;;;;5.20;2.40;;;25.30;41.70;;;;;;5018362;28;20030;-83
2022/05/10 10:31:02;;;;;;;7.30;2.30;;;25.50;40.80;;;;;;5017413;28;20025;-84
2022/05/10 10:33:34;;;;;;;3.67;2.33;;;25.70;41.00;;;;;;5015450;28;20126;-83
2022/05/10 10:36:18;;;;;;;6.28;2.67;;;26.00;40.70;;;;;;5014679;28;20088;-83
2022/05/10 10:38:55;;;;;;;4.90;2.40;;;25.90;41.10;;;;;;5012760;28;20477;-83
2022/05/10 10:41:32;;;;;;;7.15;2.55;;;25.30;41.70;;;;;;5015419;28;20094;-83
2022/05/10 10:44:08;;;;;;;5.63;2.00;;;25.90;41.10;;;;;;5028617;28;20025;-83
2022/05/10 10:47:00;;;;;;;7.13;2.70;;;25.50;42.00;;;;;;4997532;28;20054;-83
2022/05/10 10:49:36;;;;;;;7.70;2.58;;;25.40;41.90;;;;;;4999612;28;20034;-83
2022/05/10 10:52:02;;;;;;;4.32;2.50;;;25.50;41.20;;;;;;5012216;28;20032;-83
2022/05/10 10:54:30;;;;;;;4.85;2.55;;;25.40;42.50;;;;;;5007172;28;20034;-83
2022/05/10 10:57:14;;;;;;;8.10;3.13;;;25.40;41.80;;;;;;4999166;28;20458;-83
2022/05/10 10:59:58;;;;;;;6.43;2.65;;;24.90;41.70;;;;;;5015048;28;20117;-83
2022/05/10 11:02:57;;;;;;;6.55;2.88;;;25.00;43.20;;;;;;5016169;28;20045;-83
2022/05/10 11:06:13;;;;;;;7.03;2.97;;;24.90;42.80;;;;;;4981364;28;20038;-83
2022/05/10 11:08:59;;;;;;;6.13;2.58;;;24.70;43.90;;;;;;5002222;28;20562;-83
2022/05/10 11:11:42;;;;;;;8.02;2.78;;;25.00;43.40;;;;;;5005986;28;20039;-83
2022/05/10 11:14:25;;;;;;;7.10;2.90;;;25.70;43.70;;;;;;4997313;28;20034;-83
2022/05/10 11:17:09;;;;;;;5.68;2.80;;;25.60;42.00;;;;;;5006450;28;20485;-83
2022/05/10 11:20:02;;;;;;;11.15;3.22;;;25.50;42.20;;;;;;5014724;28;20047;-83
2022/05/10 11:22:40;;;;;;;5.93;3.50;;;25.40;42.10;;;;;;5008444;28;20080;-87
2022/05/10 11:25:10;;;;;;;7.22;3.13;;;25.10;42.80;;;;;;5011173;28;20030;-86
2022/05/10 11:27:58;;;;;;;5.05;2.53;;;25.30;43.10;;;;;;4984635;28;20032;-87
2022/05/10 11:30:48;;;;;;;6.20;3.05;;;25.50;44.00;;;;;;5012688;28;20030;-86
2022/05/10 11:33:35;;;;;;;3.92;2.80;;;25.40;44.00;;;;;;4994453;28;20034;-86
2022/05/10 11:36:20;;;;;;;4.90;2.80;;;25.60;44.00;;;;;;5008967;28;20058;-87
2022/05/10 11:39:01;;;;;;;5.82;3.03;;;26.40;42.50;;;;;;5019549;28;20030;-86
2022/05/10 11:41:35;;;;;;;8.32;3.28;;;25.60;41.20;;;;;;5007863;28;20338;-87
2022/05/10 11:44:46;;;;;;;4.85;3.00;;;25.70;42.10;;;;;;5010767;28;20629;-86
2022/05/10 11:47:29;;;;;;;5.70;3.30;;;25.60;42.40;;;;;;4996689;28;20517;-86
2022/05/10 11:50:11;;;;;;;5.22;2.95;;;25.50;43.10;;;;;;5013169;28;20044;-86
2022/05/10 11:53:07;;;;;;;6.75;3.05;;;25.20;43.70;;;;;;5010828;28;20040;-86
2022/05/10 11:55:37;;;;;;;6.40;2.92;;;25.50;43.80;;;;;;4994764;28;20083;-86
2022/05/10 11:58:07;;;;;;;6.85;3.45;;;25.20;43.10;;;;;;5013084;28;20119;-87
2022/05/10 12:00:33;;;;;;;5.65;3.30;;;25.40;42.70;;;;;;4986969;28;20026;-87
2022/05/10 12:03:10;;;;;;;6.30;3.40;;;25.70;43.80;;;;;;5007116;28;20037;-87
2022/05/10 12:05:39;;;;;;;7.35;2.78;;;25.50;42.50;;;;;;4995728;28;20029;-86
2022/05/10 12:08:27;;;;;;;6.60;2.90;;;25.50;42.00;;;;;;4991100;28;20042;-86
2022/05/10 12:10:53;;;;;;;5.45;2.70;;;25.50;43.00;;;;;;5011396;28;20389;-86
2022/05/10 12:21:19;;;;;;;5.90;2.70;;;25.30;41.80;;;;;;4994542;28;20025;-87
2022/05/10 12:22:07;;;;;;;5.57;2.67;;;25.50;40.80;;;;;;5008417;28;20037;-86
2022/05/10 12:24:44;;;;;;;6.00;2.83;;;25.60;41.50;;;;;;4988567;28;20120;-87
2022/05/10 12:27:12;;;;;;;5.15;2.65;;;25.90;42.40;;;;;;5007279;28;20057;-87
2022/05/10 12:29:37;;;;;;;6.30;2.85;;;25.70;41.10;;;;;;5010217;28;20032;-86
2022/05/10 12:32:38;;;;;;;5.15;2.85;;;25.60;40.40;;;;;;5008349;28;20105;-86
2022/05/10 12:35:04;;;;;;;;;;;25.40;40.30;;;;;;5005748;28;20389;-87
2022/05/10 12:37:30;;;;;;;7.35;2.88;;;25.20;41.50;;;;;;5008131;28;19916;-86
2022/05/10 12:40:08;;;;;;;5.80;2.65;;;25.00;41.80;;;;;;5008028;28;20041;-86
2022/05/10 12:42:40;;;;;;;7.97;3.28;;;25.00;42.20;;;;;;5009579;28;20076;-86
2022/05/10 12:45:44;;;;;;;8.95;3.08;;;25.00;42.20;;;;;;5009484;28;20030;-85
2022/05/10 12:48:47;;;;;;;10.82;3.83;;;25.00;42.80;;;;;;4997575;28;20117;-84
2022/05/10 12:51:32;;;;;;;6.72;3.38;;;24.80;42.90;;;;;;5008483;28;20022;-85
2022/05/10 12:54:01;;;;;;;5.05;3.28;;;25.00;43.60;;;;;;5003203;28;20130;-85
2022/05/10 12:56:36;;;;;;;7.53;3.40;;;24.90;43.60;;;;;;4989942;28;20045;-85
2022/05/10 12:59:09;;;;;;;8.30;3.58;;;25.00;44.20;;;;;;5007083;28;20366;-85
2022/05/10 13:01:37;;;;;;;6.22;3.40;;;24.80;43.70;;;;;;5006656;28;20491;-85
2022/05/10 13:04:16;;;;;;;7.05;3.67;;;24.80;44.40;;;;;;4992930;28;20061;-85
2022/05/10 13:06:55;;;;;;;7.75;3.60;;;24.60;44.50;;;;;;4990402;28;20026;-85
2022/05/10 13:09:39;;;;;;;9.45;3.50;;;24.60;44.10;;;;;;4980312;28;20022;-85
2022/05/10 13:12:18;;;;;;;6.57;2.97;;;24.60;44.10;;;;;;4990371;28;20033;-85
2022/05/10 13:14:47;;;;;;;5.38;3.47;;;24.60;44.30;;;;;;4986816;28;20054;-85
2022/05/10 13:17:22;;;;;;;7.05;3.35;;;24.70;43.80;;;;;;5004259;28;20337;-85
2022/05/10 13:19:48;;;;;;;7.55;3.97;;;24.70;44.20;;;;;;4987959;28;20034;-84
2022/05/10 13:22:21;;;;;;;7.78;4.05;;;25.00;44.20;;;;;;4989874;28;20106;-85
2022/05/10 13:24:51;;;;;;;8.00;3.42;;;24.90;43.50;;;;;;4987559;28;20115;-84